UMGG

Gomel Airport

Gomel, Belarus
TAF UMGG 170500Z 1706/1806 02005MPS 6000 SCT010 TEMPO 1710/1715 34005MPS FM171500 32004MPS 1200 BR SCT004 TEMPO 1718/1806 28004MPS 0300 FZFG VV002
Issued Valid From Valid To
Nov-17 @ 05:00 UTC
(4 hours ago)
Nov-17 @ 06:00 UTC
(3 hours ago)
Nov-18 @ 06:00 UTC
(in 21 hours)
Nov-17 @ 06:00 to Nov-17 @ 15:00
TAF UMGG 170500Z 1706/1806 02005MPS 6000 SCT010
Wind Visibility Clouds
20° at 10 knots 6,003 meters
  • Scattered at 1,000' AGL
Temporary Nov-17 @ 10:00 to Nov-17 @ 15:00
TEMPO 1710/1715 34005MPS
Wind
340° at 10 knots
From Nov-17 @ 15:00 to Nov-18 @ 06:00
FM171500 32004MPS 1200 BR SCT004
Wind Visibility Clouds Conditions
320° at 8 knots 1,207 meters
  • Scattered at 400' AGL
  • Mist
Temporary Nov-17 @ 18:00 to Nov-18 @ 06:00
TEMPO 1718/1806 28004MPS 0300 FZFG VV002
Wind Visibility Clouds Conditions
280° at 8 knots 306 meters
  • Vertical visibility at 200' AGL
  • Freezing
  • Fog
TAF UMGG 170500Z 1706/1806 02005MPS 6000 SCT010 TEMPO 1710/1715 34005MPS FM171500 32004MPS 1200 BR SCT004 TEMPO 1718/1806 28004MPS 0300 FZFG VV002
Issued Nov-17 @ 05:00 UTC
(4 hours ago)
Valid From Nov-17 @ 06:00 UTC
(3 hours ago)
Valid To Nov-18 @ 06:00 UTC
(in 21 hours)
Nov-17 @ 06:00 - Nov-17 @ 15:00
Wind Visibility
20° at 10 knots 6,003 meters
Clouds
  • Scattered at 1,000' AGL
Temporary Nov-17 @ 10:00 - Nov-17 @ 15:00
Wind
340° at 10 knots
From Nov-17 @ 15:00 - Nov-18 @ 06:00
Wind Visibility
320° at 8 knots 1,207 meters
Clouds
  • Scattered at 400' AGL
Conditions
  • Mist
Temporary Nov-17 @ 18:00 - Nov-18 @ 06:00
Wind Visibility
280° at 8 knots 306 meters
Clouds
  • Vertical visibility at 200' AGL
Conditions
  • Freezing
  • Fog